sensor_id;sensor_type;location;lat;lon;timestamp;P1;durP1;ratioP1;P2;durP2;ratioP2
13927;SDS011;7036;50.834;4.718;2022-11-04T00:01:25;1.00;;;0.90;;
13927;SDS011;7036;50.834;4.718;2022-11-04T00:03:51;1.40;;;1.20;;
13927;SDS011;7036;50.834;4.718;2022-11-04T00:06:19;1.60;;;0.82;;
13927;SDS011;7036;50.834;4.718;2022-11-04T00:08:53;3.00;;;0.80;;
13927;SDS011;7036;50.834;4.718;2022-11-04T00:11:19;0.70;;;0.70;;
13927;SDS011;7036;50.834;4.718;2022-11-04T00:14:05;1.23;;;1.00;;
13927;SDS011;7036;50.834;4.718;2022-11-04T00:16:32;0.73;;;0.73;;
13927;SDS011;7036;50.834;4.718;2022-11-04T00:19:17;3.30;;;0.90;;
13927;SDS011;7036;50.834;4.718;2022-11-04T00:21:45;1.00;;;0.73;;
13927;SDS011;7036;50.834;4.718;2022-11-04T00:24:29;2.40;;;0.80;;
13927;SDS011;7036;50.834;4.718;2022-11-04T00:27:09;0.93;;;0.67;;
13927;SDS011;7036;50.834;4.718;2022-11-04T00:29:54;1.90;;;1.03;;
13927;SDS011;7036;50.834;4.718;2022-11-04T00:32:21;0.73;;;0.60;;
13927;SDS011;7036;50.834;4.718;2022-11-04T00:35:06;2.43;;;0.73;;
13927;SDS011;7036;50.834;4.718;2022-11-04T00:37:38;1.27;;;0.98;;
13927;SDS011;7036;50.834;4.718;2022-11-04T00:40:04;0.97;;;0.90;;
13927;SDS011;7036;50.834;4.718;2022-11-04T00:42:31;3.47;;;0.82;;
13927;SDS011;7036;50.834;4.718;2022-11-04T00:44:58;1.17;;;0.90;;
13927;SDS011;7036;50.834;4.718;2022-11-04T00:47:25;1.08;;;0.75;;
13927;SDS011;7036;50.834;4.718;2022-11-04T00:49:53;1.00;;;0.90;;
13927;SDS011;7036;50.834;4.718;2022-11-04T00:52:20;1.52;;;0.80;;
13927;SDS011;7036;50.834;4.718;2022-11-04T00:54:47;0.80;;;0.60;;
13927;SDS011;7036;50.834;4.718;2022-11-04T00:57:15;1.42;;;0.95;;
13927;SDS011;7036;50.834;4.718;2022-11-04T00:59:42;0.87;;;0.70;;
13927;SDS011;7036;50.834;4.718;2022-11-04T01:02:10;0.80;;;0.73;;
13927;SDS011;7036;50.834;4.718;2022-11-04T01:04:36;2.07;;;1.10;;
13927;SDS011;7036;50.834;4.718;2022-11-04T01:07:05;0.80;;;0.70;;
13927;SDS011;7036;50.834;4.718;2022-11-04T01:09:31;1.23;;;0.80;;
13927;SDS011;7036;50.834;4.718;2022-11-04T01:11:59;2.65;;;1.10;;
13927;SDS011;7036;50.834;4.718;2022-11-04T01:14:27;1.08;;;0.98;;
13927;SDS011;7036;50.834;4.718;2022-11-04T01:16:54;2.22;;;0.90;;
13927;SDS011;7036;50.834;4.718;2022-11-04T01:19:22;1.13;;;1.02;;
13927;SDS011;7036;50.834;4.718;2022-11-04T01:21:50;1.00;;;0.80;;
13927;SDS011;7036;50.834;4.718;2022-11-04T01:24:17;1.42;;;0.75;;
13927;SDS011;7036;50.834;4.718;2022-11-04T01:26:46;0.93;;;0.73;;
13927;SDS011;7036;50.834;4.718;2022-11-04T01:29:12;0.70;;;0.67;;
13927;SDS011;7036;50.834;4.718;2022-11-04T01:31:39;1.88;;;0.80;;
13927;SDS011;7036;50.834;4.718;2022-11-04T01:34:07;1.30;;;0.70;;
13927;SDS011;7036;50.834;4.718;2022-11-04T01:36:34;0.88;;;0.70;;
13927;SDS011;7036;50.834;4.718;2022-11-04T01:39:02;1.00;;;0.93;;
13927;SDS011;7036;50.834;4.718;2022-11-04T01:41:31;1.23;;;0.80;;
13927;SDS011;7036;50.834;4.718;2022-11-04T01:43:58;1.17;;;0.90;;
13927;SDS011;7036;50.834;4.718;2022-11-04T01:51:52;0.67;;;0.67;;
13927;SDS011;7036;50.834;4.718;2022-11-04T01:54:18;1.02;;;0.75;;
13927;SDS011;7036;50.834;4.718;2022-11-04T01:56:45;1.08;;;0.90;;
13927;SDS011;7036;50.834;4.718;2022-11-04T01:59:15;1.15;;;0.70;;
13927;SDS011;7036;50.834;4.718;2022-11-04T02:01:45;1.17;;;0.80;;
13927;SDS011;7036;50.834;4.718;2022-11-04T02:04:12;1.40;;;0.80;;
13927;SDS011;7036;50.834;4.718;2022-11-04T02:06:59;1.13;;;0.60;;
13927;SDS011;7036;50.834;4.718;2022-11-04T02:09:26;1.50;;;1.00;;
13927;SDS011;7036;50.834;4.718;2022-11-04T02:11:52;2.10;;;1.00;;
13927;SDS011;7036;50.834;4.718;2022-11-04T02:14:38;0.97;;;0.77;;
13927;SDS011;7036;50.834;4.718;2022-11-04T02:25:00;1.23;;;0.80;;
13927;SDS011;7036;50.834;4.718;2022-11-04T02:35:29;1.50;;;0.83;;
13927;SDS011;7036;50.834;4.718;2022-11-04T02:40:38;2.97;;;1.00;;
13927;SDS011;7036;50.834;4.718;2022-11-04T02:43:20;1.00;;;0.90;;
13927;SDS011;7036;50.834;4.718;2022-11-04T02:45:48;1.23;;;0.90;;
13927;SDS011;7036;50.834;4.718;2022-11-04T02:50:50;1.43;;;0.90;;
13927;SDS011;7036;50.834;4.718;2022-11-04T02:53:26;1.57;;;0.90;;
13927;SDS011;7036;50.834;4.718;2022-11-04T02:55:54;2.63;;;1.00;;
13927;SDS011;7036;50.834;4.718;2022-11-04T02:58:31;1.17;;;0.85;;
13927;SDS011;7036;50.834;4.718;2022-11-04T03:00:55;1.40;;;1.00;;
13927;SDS011;7036;50.834;4.718;2022-11-04T03:03:25;0.70;;;0.70;;
13927;SDS011;7036;50.834;4.718;2022-11-04T03:05:52;1.80;;;0.80;;
13927;SDS011;7036;50.834;4.718;2022-11-04T03:08:28;1.70;;;0.90;;
13927;SDS011;7036;50.834;4.718;2022-11-04T03:11:02;1.10;;;0.80;;
13927;SDS011;7036;50.834;4.718;2022-11-04T03:13:33;2.43;;;1.13;;
13927;SDS011;7036;50.834;4.718;2022-11-04T03:15:58;2.80;;;1.30;;
13927;SDS011;7036;50.834;4.718;2022-11-04T03:18:31;1.38;;;0.70;;
13927;SDS011;7036;50.834;4.718;2022-11-04T03:20:57;1.97;;;0.83;;
13927;SDS011;7036;50.834;4.718;2022-11-04T03:23:22;1.13;;;1.00;;
13927;SDS011;7036;50.834;4.718;2022-11-04T03:25:51;1.15;;;1.05;;
13927;SDS011;7036;50.834;4.718;2022-11-04T03:30:57;1.23;;;1.03;;
13927;SDS011;7036;50.834;4.718;2022-11-04T03:33:25;1.17;;;0.80;;
13927;SDS011;7036;50.834;4.718;2022-11-04T03:35:51;0.95;;;0.80;;
13927;SDS011;7036;50.834;4.718;2022-11-04T03:38:19;1.25;;;0.77;;
13927;SDS011;7036;50.834;4.718;2022-11-04T03:40:46;2.78;;;1.17;;
13927;SDS011;7036;50.834;4.718;2022-11-04T03:43:20;2.17;;;0.95;;
13927;SDS011;7036;50.834;4.718;2022-11-04T03:45:46;1.10;;;0.93;;
13927;SDS011;7036;50.834;4.718;2022-11-04T03:48:15;1.48;;;0.82;;
13927;SDS011;7036;50.834;4.718;2022-11-04T03:50:43;0.68;;;0.55;;
13927;SDS011;7036;50.834;4.718;2022-11-04T03:53:09;1.40;;;0.80;;
13927;SDS011;7036;50.834;4.718;2022-11-04T04:01:21;0.70;;;0.70;;
13927;SDS011;7036;50.834;4.718;2022-11-04T04:03:51;2.03;;;1.17;;
13927;SDS011;7036;50.834;4.718;2022-11-04T04:06:16;1.98;;;1.10;;
13927;SDS011;7036;50.834;4.718;2022-11-04T04:08:45;0.93;;;0.85;;
13927;SDS011;7036;50.834;4.718;2022-11-04T04:11:27;2.13;;;0.87;;
13927;SDS011;7036;50.834;4.718;2022-11-04T04:16:44;2.50;;;1.03;;
13927;SDS011;7036;50.834;4.718;2022-11-04T04:19:11;2.27;;;1.10;;
13927;SDS011;7036;50.834;4.718;2022-11-04T04:21:51;2.50;;;1.07;;
13927;SDS011;7036;50.834;4.718;2022-11-04T04:24:25;2.10;;;1.00;;
13927;SDS011;7036;50.834;4.718;2022-11-04T04:27:10;1.37;;;0.80;;
13927;SDS011;7036;50.834;4.718;2022-11-04T04:29:55;1.00;;;0.87;;
13927;SDS011;7036;50.834;4.718;2022-11-04T04:32:23;1.63;;;1.00;;
13927;SDS011;7036;50.834;4.718;2022-11-04T04:34:49;1.40;;;0.98;;
13927;SDS011;7036;50.834;4.718;2022-11-04T04:37:18;2.97;;;0.85;;
13927;SDS011;7036;50.834;4.718;2022-11-04T04:39:53;1.10;;;0.90;;
13927;SDS011;7036;50.834;4.718;2022-11-04T04:42:38;1.10;;;0.90;;
13927;SDS011;7036;50.834;4.718;2022-11-04T04:48:02;1.37;;;1.00;;
13927;SDS011;7036;50.834;4.718;2022-11-04T04:50:47;2.47;;;1.10;;
13927;SDS011;7036;50.834;4.718;2022-11-04T04:53:11;1.63;;;1.20;;
13927;SDS011;7036;50.834;4.718;2022-11-04T04:55:39;2.00;;;1.15;;
13927;SDS011;7036;50.834;4.718;2022-11-04T04:58:06;3.50;;;1.20;;
13927;SDS011;7036;50.834;4.718;2022-11-04T05:00:33;1.42;;;0.88;;
13927;SDS011;7036;50.834;4.718;2022-11-04T05:03:01;2.03;;;1.10;;
13927;SDS011;7036;50.834;4.718;2022-11-04T05:05:28;2.33;;;1.10;;
13927;SDS011;7036;50.834;4.718;2022-11-04T05:08:02;1.15;;;0.95;;
13927;SDS011;7036;50.834;4.718;2022-11-04T05:10:24;1.27;;;0.90;;
13927;SDS011;7036;50.834;4.718;2022-11-04T05:12:50;1.33;;;0.93;;
13927;SDS011;7036;50.834;4.718;2022-11-04T05:15:36;1.70;;;0.97;;
13927;SDS011;7036;50.834;4.718;2022-11-04T05:18:03;1.10;;;1.00;;
13927;SDS011;7036;50.834;4.718;2022-11-04T05:20:30;4.28;;;1.00;;
13927;SDS011;7036;50.834;4.718;2022-11-04T05:22:59;1.90;;;1.48;;
13927;SDS011;7036;50.834;4.718;2022-11-04T05:25:26;1.43;;;0.90;;
13927;SDS011;7036;50.834;4.718;2022-11-04T05:27:53;1.10;;;0.82;;
13927;SDS011;7036;50.834;4.718;2022-11-04T05:30:20;2.33;;;0.80;;
13927;SDS011;7036;50.834;4.718;2022-11-04T05:32:47;2.65;;;0.85;;
13927;SDS011;7036;50.834;4.718;2022-11-04T05:35:15;3.80;;;1.25;;
13927;SDS011;7036;50.834;4.718;2022-11-04T05:37:43;1.58;;;0.98;;
13927;SDS011;7036;50.834;4.718;2022-11-04T05:40:11;1.15;;;1.02;;
13927;SDS011;7036;50.834;4.718;2022-11-04T05:42:38;1.02;;;0.93;;
13927;SDS011;7036;50.834;4.718;2022-11-04T05:45:07;3.80;;;1.40;;
13927;SDS011;7036;50.834;4.718;2022-11-04T05:47:34;1.43;;;1.00;;
13927;SDS011;7036;50.834;4.718;2022-11-04T05:50:02;1.77;;;1.20;;
13927;SDS011;7036;50.834;4.718;2022-11-04T05:52:30;1.63;;;1.20;;
13927;SDS011;7036;50.834;4.718;2022-11-04T05:54:56;2.00;;;1.00;;
13927;SDS011;7036;50.834;4.718;2022-11-04T05:57:23;1.45;;;1.02;;
13927;SDS011;7036;50.834;4.718;2022-11-04T05:59:50;1.50;;;1.10;;
13927;SDS011;7036;50.834;4.718;2022-11-04T06:02:18;1.52;;;0.98;;
13927;SDS011;7036;50.834;4.718;2022-11-04T06:04:45;1.27;;;1.08;;
13927;SDS011;7036;50.834;4.718;2022-11-04T06:07:13;1.63;;;1.17;;
13927;SDS011;7036;50.834;4.718;2022-11-04T06:09:40;2.03;;;0.90;;
13927;SDS011;7036;50.834;4.718;2022-11-04T06:12:08;2.10;;;0.80;;
13927;SDS011;7036;50.834;4.718;2022-11-04T06:14:35;3.05;;;1.17;;
13927;SDS011;7036;50.834;4.718;2022-11-04T06:17:02;2.45;;;0.90;;
13927;SDS011;7036;50.834;4.718;2022-11-04T06:19:30;1.67;;;1.15;;
13927;SDS011;7036;50.834;4.718;2022-11-04T06:21:57;1.08;;;0.85;;
13927;SDS011;7036;50.834;4.718;2022-11-04T06:24:26;1.10;;;1.00;;
13927;SDS011;7036;50.834;4.718;2022-11-04T06:26:55;2.90;;;1.27;;
13927;SDS011;7036;50.834;4.718;2022-11-04T06:29:23;0.80;;;0.80;;
13927;SDS011;7036;50.834;4.718;2022-11-04T06:31:49;0.97;;;0.87;;
13927;SDS011;7036;50.834;4.718;2022-11-04T06:34:16;2.33;;;0.98;;
13927;SDS011;7036;50.834;4.718;2022-11-04T06:36:44;2.50;;;1.60;;
13927;SDS011;7036;50.834;4.718;2022-11-04T06:39:11;1.67;;;1.10;;
13927;SDS011;7036;50.834;4.718;2022-11-04T06:41:39;1.00;;;0.77;;
13927;SDS011;7036;50.834;4.718;2022-11-04T06:44:06;1.45;;;1.10;;
13927;SDS011;7036;50.834;4.718;2022-11-04T06:46:34;2.40;;;1.20;;
13927;SDS011;7036;50.834;4.718;2022-11-04T06:49:05;1.53;;;0.87;;
13927;SDS011;7036;50.834;4.718;2022-11-04T06:51:31;1.03;;;0.90;;
13927;SDS011;7036;50.834;4.718;2022-11-04T06:53:58;1.67;;;0.90;;
13927;SDS011;7036;50.834;4.718;2022-11-04T06:56:25;2.22;;;1.13;;
13927;SDS011;7036;50.834;4.718;2022-11-04T06:58:53;0.77;;;0.60;;
13927;SDS011;7036;50.834;4.718;2022-11-04T07:01:21;2.03;;;1.27;;
13927;SDS011;7036;50.834;4.718;2022-11-04T07:03:51;1.95;;;1.02;;
13927;SDS011;7036;50.834;4.718;2022-11-04T07:06:15;1.90;;;1.20;;
13927;SDS011;7036;50.834;4.718;2022-11-04T07:08:43;1.83;;;0.98;;
13927;SDS011;7036;50.834;4.718;2022-11-04T07:11:10;2.15;;;0.93;;
13927;SDS011;7036;50.834;4.718;2022-11-04T07:13:38;2.75;;;1.40;;
13927;SDS011;7036;50.834;4.718;2022-11-04T07:16:07;2.65;;;1.15;;
13927;SDS011;7036;50.834;4.718;2022-11-04T07:18:34;2.25;;;1.25;;
13927;SDS011;7036;50.834;4.718;2022-11-04T07:21:02;2.42;;;1.00;;
13927;SDS011;7036;50.834;4.718;2022-11-04T07:23:30;2.10;;;1.42;;
13927;SDS011;7036;50.834;4.718;2022-11-04T07:26:00;1.48;;;1.10;;
13927;SDS011;7036;50.834;4.718;2022-11-04T07:28:26;1.67;;;1.10;;
13927;SDS011;7036;50.834;4.718;2022-11-04T07:30:57;2.53;;;1.08;;
13927;SDS011;7036;50.834;4.718;2022-11-04T07:33:22;2.60;;;1.35;;
13927;SDS011;7036;50.834;4.718;2022-11-04T07:35:50;3.13;;;1.33;;
13927;SDS011;7036;50.834;4.718;2022-11-04T07:38:17;2.30;;;1.27;;
13927;SDS011;7036;50.834;4.718;2022-11-04T07:40:45;4.65;;;1.10;;
13927;SDS011;7036;50.834;4.718;2022-11-04T07:43:13;2.70;;;1.60;;
13927;SDS011;7036;50.834;4.718;2022-11-04T07:45:40;11.93;;;1.58;;
13927;SDS011;7036;50.834;4.718;2022-11-04T07:48:07;1.83;;;1.27;;
13927;SDS011;7036;50.834;4.718;2022-11-04T07:50:37;3.00;;;1.42;;
13927;SDS011;7036;50.834;4.718;2022-11-04T07:53:05;2.97;;;1.53;;
13927;SDS011;7036;50.834;4.718;2022-11-04T07:55:35;4.20;;;1.67;;
13927;SDS011;7036;50.834;4.718;2022-11-04T07:58:00;6.30;;;1.83;;
13927;SDS011;7036;50.834;4.718;2022-11-04T08:00:28;7.55;;;2.20;;
13927;SDS011;7036;50.834;4.718;2022-11-04T08:02:56;7.07;;;1.92;;
13927;SDS011;7036;50.834;4.718;2022-11-04T08:05:23;12.38;;;2.28;;
13927;SDS011;7036;50.834;4.718;2022-11-04T08:07:51;8.75;;;2.50;;
13927;SDS011;7036;50.834;4.718;2022-11-04T08:10:19;5.20;;;2.45;;
13927;SDS011;7036;50.834;4.718;2022-11-04T08:12:48;7.18;;;2.10;;
13927;SDS011;7036;50.834;4.718;2022-11-04T08:15:14;6.07;;;2.40;;
13927;SDS011;7036;50.834;4.718;2022-11-04T08:17:42;4.47;;;2.83;;
13927;SDS011;7036;50.834;4.718;2022-11-04T08:20:10;8.00;;;2.65;;
13927;SDS011;7036;50.834;4.718;2022-11-04T08:22:38;8.40;;;2.45;;
13927;SDS011;7036;50.834;4.718;2022-11-04T08:25:06;11.77;;;3.15;;
13927;SDS011;7036;50.834;4.718;2022-11-04T08:27:34;14.97;;;3.57;;
13927;SDS011;7036;50.834;4.718;2022-11-04T08:30:00;8.43;;;3.20;;
13927;SDS011;7036;50.834;4.718;2022-11-04T08:32:27;11.68;;;3.75;;
13927;SDS011;7036;50.834;4.718;2022-11-04T08:34:55;8.25;;;2.55;;
13927;SDS011;7036;50.834;4.718;2022-11-04T08:37:22;6.22;;;2.90;;
13927;SDS011;7036;50.834;4.718;2022-11-04T08:39:49;7.38;;;2.83;;
13927;SDS011;7036;50.834;4.718;2022-11-04T08:42:16;8.77;;;3.40;;
13927;SDS011;7036;50.834;4.718;2022-11-04T08:44:44;5.68;;;2.92;;
13927;SDS011;7036;50.834;4.718;2022-11-04T08:47:57;12.77;;;3.38;;
13927;SDS011;7036;50.834;4.718;2022-11-04T08:50:24;6.32;;;2.67;;
13927;SDS011;7036;50.834;4.718;2022-11-04T08:52:51;15.05;;;3.95;;
13927;SDS011;7036;50.834;4.718;2022-11-04T08:55:18;13.75;;;3.92;;
13927;SDS011;7036;50.834;4.718;2022-11-04T08:57:46;9.70;;;3.20;;
13927;SDS011;7036;50.834;4.718;2022-11-04T09:00:16;7.90;;;3.75;;
13927;SDS011;7036;50.834;4.718;2022-11-04T09:02:44;6.88;;;3.00;;
13927;SDS011;7036;50.834;4.718;2022-11-04T09:05:12;8.95;;;2.88;;
13927;SDS011;7036;50.834;4.718;2022-11-04T09:07:40;7.30;;;2.97;;
13927;SDS011;7036;50.834;4.718;2022-11-04T09:10:09;5.05;;;3.30;;
13927;SDS011;7036;50.834;4.718;2022-11-04T09:12:36;10.02;;;3.15;;
13927;SDS011;7036;50.834;4.718;2022-11-04T09:15:04;9.52;;;3.10;;
13927;SDS011;7036;50.834;4.718;2022-11-04T09:17:31;9.25;;;2.75;;
13927;SDS011;7036;50.834;4.718;2022-11-04T09:19:59;10.77;;;3.22;;
13927;SDS011;7036;50.834;4.718;2022-11-04T09:22:27;6.57;;;2.95;;
13927;SDS011;7036;50.834;4.718;2022-11-04T09:24:54;9.50;;;3.13;;
13927;SDS011;7036;50.834;4.718;2022-11-04T09:27:22;8.07;;;3.78;;
13927;SDS011;7036;50.834;4.718;2022-11-04T09:29:50;6.60;;;3.22;;
13927;SDS011;7036;50.834;4.718;2022-11-04T09:32:18;10.15;;;3.58;;
13927;SDS011;7036;50.834;4.718;2022-11-04T09:34:45;8.57;;;2.90;;
13927;SDS011;7036;50.834;4.718;2022-11-04T09:37:13;7.93;;;3.42;;
13927;SDS011;7036;50.834;4.718;2022-11-04T09:39:41;7.78;;;3.20;;
13927;SDS011;7036;50.834;4.718;2022-11-04T09:42:12;9.05;;;2.92;;
13927;SDS011;7036;50.834;4.718;2022-11-04T09:44:47;9.57;;;3.47;;
13927;SDS011;7036;50.834;4.718;2022-11-04T09:47:13;11.38;;;3.10;;
13927;SDS011;7036;50.834;4.718;2022-11-04T09:49:42;6.75;;;3.00;;
13927;SDS011;7036;50.834;4.718;2022-11-04T09:52:12;6.05;;;2.88;;
13927;SDS011;7036;50.834;4.718;2022-11-04T09:54:57;5.40;;;2.88;;
13927;SDS011;7036;50.834;4.718;2022-11-04T09:57:22;4.43;;;2.45;;
13927;SDS011;7036;50.834;4.718;2022-11-04T09:59:49;12.05;;;2.58;;
13927;SDS011;7036;50.834;4.718;2022-11-04T10:02:22;6.63;;;2.95;;
13927;SDS011;7036;50.834;4.718;2022-11-04T10:05:49;4.65;;;2.50;;
13927;SDS011;7036;50.834;4.718;2022-11-04T10:07:35;5.57;;;2.63;;
13927;SDS011;7036;50.834;4.718;2022-11-04T10:15:35;7.60;;;2.50;;
13927;SDS011;7036;50.834;4.718;2022-11-04T10:18:26;7.13;;;2.90;;
13927;SDS011;7036;50.834;4.718;2022-11-04T10:21:27;10.18;;;2.88;;
13927;SDS011;7036;50.834;4.718;2022-11-04T10:26:46;10.02;;;3.03;;
13927;SDS011;7036;50.834;4.718;2022-11-04T10:29:15;9.05;;;2.72;;
13927;SDS011;7036;50.834;4.718;2022-11-04T10:31:42;5.78;;;2.47;;
13927;SDS011;7036;50.834;4.718;2022-11-04T10:36:49;5.38;;;2.45;;
13927;SDS011;7036;50.834;4.718;2022-11-04T10:39:28;3.75;;;2.15;;
13927;SDS011;7036;50.834;4.718;2022-11-04T10:41:53;7.38;;;2.58;;
13927;SDS011;7036;50.834;4.718;2022-11-04T10:52:16;5.38;;;2.30;;
13927;SDS011;7036;50.834;4.718;2022-11-04T10:54:47;4.70;;;2.00;;
13927;SDS011;7036;50.834;4.718;2022-11-04T10:57:18;5.63;;;2.10;;
13927;SDS011;7036;50.834;4.718;2022-11-04T10:59:58;4.38;;;1.90;;
13927;SDS011;7036;50.834;4.718;2022-11-04T11:07:48;5.78;;;2.70;;
13927;SDS011;7036;50.834;4.718;2022-11-04T11:10:18;3.95;;;1.83;;
13927;SDS011;7036;50.834;4.718;2022-11-04T11:12:49;8.93;;;2.40;;
13927;SDS011;7036;50.834;4.718;2022-11-04T11:15:25;4.82;;;2.72;;
13927;SDS011;7036;50.834;4.718;2022-11-04T11:17:45;3.90;;;2.00;;
13927;SDS011;7036;50.834;4.718;2022-11-04T11:20:20;10.73;;;2.28;;
13927;SDS011;7036;50.834;4.718;2022-11-04T11:22:47;4.80;;;2.05;;
13927;SDS011;7036;50.834;4.718;2022-11-04T11:27:49;3.78;;;1.60;;
13927;SDS011;7036;50.834;4.718;2022-11-04T11:30:20;6.78;;;2.13;;
13927;SDS011;7036;50.834;4.718;2022-11-04T11:32:44;3.28;;;1.80;;
13927;SDS011;7036;50.834;4.718;2022-11-04T11:35:15;8.77;;;2.35;;
13927;SDS011;7036;50.834;4.718;2022-11-04T11:37:45;3.80;;;1.80;;
13927;SDS011;7036;50.834;4.718;2022-11-04T11:40:23;3.92;;;2.10;;
13927;SDS011;7036;50.834;4.718;2022-11-04T11:42:49;3.75;;;1.88;;
13927;SDS011;7036;50.834;4.718;2022-11-04T11:45:17;7.10;;;2.20;;
13927;SDS011;7036;50.834;4.718;2022-11-04T11:47:44;2.95;;;1.63;;
13927;SDS011;7036;50.834;4.718;2022-11-04T11:50:17;4.00;;;1.85;;
13927;SDS011;7036;50.834;4.718;2022-11-04T11:52:44;5.28;;;2.17;;
13927;SDS011;7036;50.834;4.718;2022-11-04T11:55:14;3.63;;;2.08;;
13927;SDS011;7036;50.834;4.718;2022-11-04T12:00:14;4.82;;;2.10;;
13927;SDS011;7036;50.834;4.718;2022-11-04T12:05:16;4.13;;;2.92;;
13927;SDS011;7036;50.834;4.718;2022-11-04T12:07:46;7.63;;;2.63;;
13927;SDS011;7036;50.834;4.718;2022-11-04T12:10:32;3.65;;;2.40;;
13927;SDS011;7036;50.834;4.718;2022-11-04T12:13:22;4.25;;;2.60;;
13927;SDS011;7036;50.834;4.718;2022-11-04T12:18:38;6.97;;;2.67;;
13927;SDS011;7036;50.834;4.718;2022-11-04T12:21:21;5.20;;;2.38;;
13927;SDS011;7036;50.834;4.718;2022-11-04T12:23:59;5.82;;;2.17;;
13927;SDS011;7036;50.834;4.718;2022-11-04T12:26:30;5.38;;;2.42;;
13927;SDS011;7036;50.834;4.718;2022-11-04T12:29:06;5.07;;;2.60;;
13927;SDS011;7036;50.834;4.718;2022-11-04T12:39:48;3.83;;;2.17;;
13927;SDS011;7036;50.834;4.718;2022-11-04T12:44:58;6.13;;;2.17;;
13927;SDS011;7036;50.834;4.718;2022-11-04T12:47:38;7.40;;;2.78;;
13927;SDS011;7036;50.834;4.718;2022-11-04T12:50:16;10.30;;;3.20;;
13927;SDS011;7036;50.834;4.718;2022-11-04T12:52:49;8.45;;;2.90;;
13927;SDS011;7036;50.834;4.718;2022-11-04T12:55:18;8.68;;;3.22;;
13927;SDS011;7036;50.834;4.718;2022-11-04T13:00:36;6.97;;;2.63;;
13927;SDS011;7036;50.834;4.718;2022-11-04T13:05:51;5.45;;;2.22;;
13927;SDS011;7036;50.834;4.718;2022-11-04T13:13:20;4.78;;;2.47;;
13927;SDS011;7036;50.834;4.718;2022-11-04T13:15:48;3.60;;;1.95;;
13927;SDS011;7036;50.834;4.718;2022-11-04T13:18:15;5.38;;;2.80;;
13927;SDS011;7036;50.834;4.718;2022-11-04T13:20:43;4.15;;;2.30;;
13927;SDS011;7036;50.834;4.718;2022-11-04T13:23:17;7.15;;;2.67;;
13927;SDS011;7036;50.834;4.718;2022-11-04T13:25:45;3.20;;;2.20;;
13927;SDS011;7036;50.834;4.718;2022-11-04T13:28:17;6.18;;;2.45;;
13927;SDS011;7036;50.834;4.718;2022-11-04T13:38:52;6.47;;;2.67;;
13927;SDS011;7036;50.834;4.718;2022-11-04T13:43:33;5.60;;;2.53;;
13927;SDS011;7036;50.834;4.718;2022-11-04T13:48:49;6.70;;;2.75;;
13927;SDS011;7036;50.834;4.718;2022-11-04T13:53:48;4.20;;;2.50;;
13927;SDS011;7036;50.834;4.718;2022-11-04T13:59:18;5.32;;;2.83;;
13927;SDS011;7036;50.834;4.718;2022-11-04T14:01:25;8.50;;;3.22;;
13927;SDS011;7036;50.834;4.718;2022-11-04T14:03:53;5.53;;;3.00;;
13927;SDS011;7036;50.834;4.718;2022-11-04T14:14:41;12.98;;;4.65;;
13927;SDS011;7036;50.834;4.718;2022-11-04T14:22:35;9.90;;;4.63;;
13927;SDS011;7036;50.834;4.718;2022-11-04T14:25:17;9.60;;;4.18;;
13927;SDS011;7036;50.834;4.718;2022-11-04T14:27:39;9.73;;;4.10;;
13927;SDS011;7036;50.834;4.718;2022-11-04T14:29:58;12.30;;;5.07;;
13927;SDS011;7036;50.834;4.718;2022-11-04T14:32:26;11.65;;;4.93;;
13927;SDS011;7036;50.834;4.718;2022-11-04T14:34:59;11.45;;;4.57;;
13927;SDS011;7036;50.834;4.718;2022-11-04T14:37:26;9.63;;;4.50;;
13927;SDS011;7036;50.834;4.718;2022-11-04T14:40:00;7.57;;;5.07;;
13927;SDS011;7036;50.834;4.718;2022-11-04T14:45:22;8.27;;;4.63;;
13927;SDS011;7036;50.834;4.718;2022-11-04T14:47:53;7.80;;;4.72;;
13927;SDS011;7036;50.834;4.718;2022-11-04T14:50:24;8.43;;;4.10;;
13927;SDS011;7036;50.834;4.718;2022-11-04T14:53:08;11.35;;;4.97;;
13927;SDS011;7036;50.834;4.718;2022-11-04T14:55:37;8.55;;;4.65;;
13927;SDS011;7036;50.834;4.718;2022-11-04T15:00:57;10.82;;;4.90;;
13927;SDS011;7036;50.834;4.718;2022-11-04T15:03:35;9.77;;;4.07;;
13927;SDS011;7036;50.834;4.718;2022-11-04T15:06:03;11.50;;;4.35;;
13927;SDS011;7036;50.834;4.718;2022-11-04T15:08:30;9.57;;;5.03;;
13927;SDS011;7036;50.834;4.718;2022-11-04T15:11:00;4.93;;;3.47;;
13927;SDS011;7036;50.834;4.718;2022-11-04T15:13:36;7.05;;;3.67;;
13927;SDS011;7036;50.834;4.718;2022-11-04T15:16:06;8.90;;;4.10;;
13927;SDS011;7036;50.834;4.718;2022-11-04T15:18:35;6.40;;;4.10;;
13927;SDS011;7036;50.834;4.718;2022-11-04T15:21:02;6.97;;;3.72;;
13927;SDS011;7036;50.834;4.718;2022-11-04T15:23:30;10.80;;;4.80;;
13927;SDS011;7036;50.834;4.718;2022-11-04T15:25:57;5.63;;;3.30;;
13927;SDS011;7036;50.834;4.718;2022-11-04T15:28:26;8.82;;;4.47;;
13927;SDS011;7036;50.834;4.718;2022-11-04T15:33:34;7.30;;;3.58;;
13927;SDS011;7036;50.834;4.718;2022-11-04T15:36:01;5.07;;;3.58;;
13927;SDS011;7036;50.834;4.718;2022-11-04T15:38:29;5.63;;;3.28;;
13927;SDS011;7036;50.834;4.718;2022-11-04T15:40:56;9.77;;;4.18;;
13927;SDS011;7036;50.834;4.718;2022-11-04T15:43:24;6.75;;;3.70;;
13927;SDS011;7036;50.834;4.718;2022-11-04T15:45:52;5.22;;;3.35;;
13927;SDS011;7036;50.834;4.718;2022-11-04T15:48:30;6.50;;;3.58;;
13927;SDS011;7036;50.834;4.718;2022-11-04T15:53:32;6.45;;;3.75;;
13927;SDS011;7036;50.834;4.718;2022-11-04T15:56:00;9.90;;;3.42;;
13927;SDS011;7036;50.834;4.718;2022-11-04T15:58:27;6.30;;;3.90;;
13927;SDS011;7036;50.834;4.718;2022-11-04T16:00:54;5.70;;;3.22;;
13927;SDS011;7036;50.834;4.718;2022-11-04T16:03:22;6.53;;;3.10;;
13927;SDS011;7036;50.834;4.718;2022-11-04T16:06:02;5.30;;;3.00;;
13927;SDS011;7036;50.834;4.718;2022-11-04T16:08:30;7.32;;;3.13;;
13927;SDS011;7036;50.834;4.718;2022-11-04T16:11:10;6.25;;;3.35;;
13927;SDS011;7036;50.834;4.718;2022-11-04T16:13:39;8.10;;;2.83;;
13927;SDS011;7036;50.834;4.718;2022-11-04T16:16:12;3.38;;;2.75;;
13927;SDS011;7036;50.834;4.718;2022-11-04T16:18:35;4.00;;;2.88;;
13927;SDS011;7036;50.834;4.718;2022-11-04T16:21:05;5.85;;;2.80;;
13927;SDS011;7036;50.834;4.718;2022-11-04T16:23:32;9.70;;;3.20;;
13927;SDS011;7036;50.834;4.718;2022-11-04T16:26:00;7.47;;;3.00;;
13927;SDS011;7036;50.834;4.718;2022-11-04T16:28:28;5.97;;;3.45;;
13927;SDS011;7036;50.834;4.718;2022-11-04T16:30:58;5.20;;;2.75;;
13927;SDS011;7036;50.834;4.718;2022-11-04T16:33:25;5.32;;;2.80;;
13927;SDS011;7036;50.834;4.718;2022-11-04T16:35:53;4.18;;;2.55;;
13927;SDS011;7036;50.834;4.718;2022-11-04T16:38:20;6.28;;;3.08;;
13927;SDS011;7036;50.834;4.718;2022-11-04T16:40:48;5.70;;;2.50;;
13927;SDS011;7036;50.834;4.718;2022-11-04T16:43:16;5.07;;;2.42;;
13927;SDS011;7036;50.834;4.718;2022-11-04T16:45:44;4.15;;;2.78;;
13927;SDS011;7036;50.834;4.718;2022-11-04T16:48:14;5.50;;;2.55;;
13927;SDS011;7036;50.834;4.718;2022-11-04T16:50:40;7.47;;;3.03;;
13927;SDS011;7036;50.834;4.718;2022-11-04T16:53:07;3.85;;;2.78;;
13927;SDS011;7036;50.834;4.718;2022-11-04T16:55:34;6.18;;;2.60;;
13927;SDS011;7036;50.834;4.718;2022-11-04T16:58:02;3.42;;;2.25;;
13927;SDS011;7036;50.834;4.718;2022-11-04T17:00:30;4.80;;;2.30;;
13927;SDS011;7036;50.834;4.718;2022-11-04T17:03:01;3.20;;;2.40;;
13927;SDS011;7036;50.834;4.718;2022-11-04T17:05:27;3.67;;;2.60;;
13927;SDS011;7036;50.834;4.718;2022-11-04T17:07:55;2.47;;;2.10;;
13927;SDS011;7036;50.834;4.718;2022-11-04T17:10:24;3.30;;;2.08;;
13927;SDS011;7036;50.834;4.718;2022-11-04T17:12:51;5.10;;;2.60;;
13927;SDS011;7036;50.834;4.718;2022-11-04T17:15:19;2.85;;;2.10;;
13927;SDS011;7036;50.834;4.718;2022-11-04T17:17:47;2.25;;;1.88;;
13927;SDS011;7036;50.834;4.718;2022-11-04T17:20:15;4.60;;;2.60;;
13927;SDS011;7036;50.834;4.718;2022-11-04T17:22:41;4.60;;;2.58;;
13927;SDS011;7036;50.834;4.718;2022-11-04T17:25:13;4.65;;;2.20;;
13927;SDS011;7036;50.834;4.718;2022-11-04T17:27:46;2.38;;;2.17;;
13927;SDS011;7036;50.834;4.718;2022-11-04T17:30:14;2.70;;;2.10;;
13927;SDS011;7036;50.834;4.718;2022-11-04T17:32:41;2.13;;;1.92;;
13927;SDS011;7036;50.834;4.718;2022-11-04T17:35:09;5.07;;;2.17;;